Time;durP1;ratioP1;P1;durP2;ratioP2;P2;SDS_P1;SDS_P2;PMS_P1;PMS_P2;Temp;Humidity;BMP_temperature;BMP_pressure;BME280_temperature;BME280_humidity;BME280_pressure;Samples;Min_cycle;Max_cycle;Signal;HPM_P1;HPM_P2
2023/09/23 00:06:23;;;;;;;0.98;0.40;;;;;;;15.03;70.95;96185.31;1074998;23;20308;-81
2023/09/23 00:09:00;;;;;;;1.23;0.38;;;;;;;15.03;71.06;96196.59;4868324;29;20056;-80
2023/09/23 00:11:31;;;;;;;0.50;0.50;;;;;;;15.02;69.20;96194.19;4868200;29;20037;-82
2023/09/23 00:14:04;;;;;;;0.60;0.40;;;;;;;14.99;69.09;96192.00;4868280;29;20030;-80
2023/09/23 00:16:40;;;;;;;0.80;0.57;;;;;;;14.97;68.96;96191.44;4868158;29;20049;-80
2023/09/23 00:19:12;;;;;;;2.47;0.93;;;;;;;14.97;68.13;96199.31;4868418;29;20038;-80
2023/09/23 00:21:51;;;;;;;1.35;0.85;;;;;;;14.95;69.01;96189.00;4869535;29;20056;-80
2023/09/23 00:43:37;;;;;;;2.85;0.60;;;;;;;14.64;68.62;96197.84;4188557;27;20072;-79
2023/09/23 00:46:29;;;;;;;0.50;0.50;;;;;;;14.64;68.32;96203.09;4831205;29;20041;-82
2023/09/23 00:49:12;;;;;;;0.80;0.60;;;;;;;14.64;68.10;96205.72;4830426;29;20065;-80
2023/09/23 00:52:05;;;;;;;2.35;0.50;;;;;;;14.65;69.74;96207.31;4831027;29;20081;-79
2023/09/23 00:54:41;;;;;;;0.93;0.43;;;;;;;14.62;68.19;96199.88;4831032;29;20058;-79
2023/09/23 00:57:16;;;;;;;1.80;0.70;;;;;;;14.63;70.15;96202.28;4830512;29;20045;-80
2023/09/23 00:59:55;;;;;;;0.30;0.30;;;;;;;14.63;69.73;96198.88;4831037;29;20051;-81
2023/09/23 01:02:26;;;;;;;0.52;0.35;;;;;;;14.57;69.60;96186.59;4830372;29;20039;-80
2023/09/23 01:04:58;;;;;;;0.38;0.38;;;;;;;14.57;69.66;96197.09;4831130;29;20051;-79
2023/09/23 01:07:33;;;;;;;0.30;0.20;;;;;;;14.55;68.74;96194.69;4830932;29;20050;-82
2023/09/23 01:10:05;;;;;;;0.68;0.40;;;;;;;14.53;68.96;96190.66;4830925;29;20072;-81
2023/09/23 01:13:00;;;;;;;1.67;0.40;;;;;;;14.51;70.14;96203.97;4830792;29;20051;-83
2023/09/23 01:15:46;;;;;;;1.20;0.40;;;;;;;14.52;69.40;96210.03;4830501;29;20078;-79
2023/09/23 01:18:21;;;;;;;1.27;0.50;;;;;;;14.49;69.90;96208.63;4830528;29;20114;-79
2023/09/23 01:21:31;;;;;;;0.40;0.32;;;;;;;14.48;70.90;96211.50;4829144;29;20062;-78
2023/09/23 01:57:34;;;;;;;0.57;0.40;;;;;;;14.45;70.88;96277.50;4865145;29;20093;-80
2023/09/23 02:00:17;;;;;;;0.47;0.35;;;;;;;14.43;70.41;96275.91;4866656;29;20061;-80
2023/09/23 02:06:10;;;;;;;0.50;0.40;;;;;;;14.47;69.80;96270.22;5059260;23;20105;-80
2023/09/23 02:08:51;;;;;;;1.98;0.30;;;;;;;14.50;71.07;96282.94;4870112;29;20062;-79
2023/09/23 02:14:38;;;;;;;2.17;0.50;;;;;;;14.48;68.85;96292.84;4870235;29;20034;-79
2023/09/23 02:17:44;;;;;;;0.93;0.60;;;;;;;14.45;68.14;96295.88;5538633;23;20079;-80
2023/09/23 02:20:25;;;;;;;1.23;0.43;;;;;;;14.38;67.58;96304.59;4869891;29;20064;-79
2023/09/23 02:23:02;;;;;;;0.88;0.30;;;;;;;14.40;68.52;96302.56;4870087;29;20109;-82
2023/09/23 02:25:47;;;;;;;0.65;0.38;;;;;;;14.40;68.04;96307.81;4870068;29;20045;-80
2023/09/23 02:28:38;;;;;;;0.68;0.20;;;;;;;14.38;68.04;96309.84;4870232;29;20057;-80
2023/09/23 02:31:32;;;;;;;0.88;0.50;;;;;;;14.31;67.12;96314.34;4869195;29;20041;-80
2023/09/23 02:34:18;;;;;;;1.05;0.40;;;;;;;14.27;68.01;96313.16;4869963;29;20038;-81
2023/09/23 02:37:12;;;;;;;1.05;0.30;;;;;;;14.29;70.95;96315.59;4869755;29;20042;-79
2023/09/23 02:39:56;;;;;;;1.02;0.55;;;;;;;14.32;69.88;96326.47;4869503;29;20114;-79
2023/09/23 02:42:42;;;;;;;1.17;0.40;;;;;;;14.34;70.07;96327.06;4869739;29;20046;-80
2023/09/23 02:45:47;;;;;;;1.45;0.40;;;;;;;14.35;68.43;96326.03;4869523;29;20088;-79
2023/09/23 02:48:28;;;;;;;0.65;0.47;;;;;;;14.36;69.32;96332.88;4869507;29;20082;-79
2023/09/23 02:51:17;;;;;;;1.15;0.52;;;;;;;14.35;69.16;96330.47;4869769;29;20058;-80
2023/09/23 02:53:54;;;;;;;1.90;0.60;;;;;;;14.35;69.65;96339.16;4869607;29;20050;-80
2023/09/23 02:56:44;;;;;;;0.65;0.65;;;;;;;14.34;68.31;96341.97;4869058;29;20040;-80
2023/09/23 02:59:31;;;;;;;2.00;0.55;;;;;;;14.33;69.84;96346.44;4869470;29;20109;-79
2023/09/23 03:02:24;;;;;;;0.45;0.45;;;;;;;14.32;71.04;96347.47;4869427;29;20034;-80
2023/09/23 03:05:16;;;;;;;2.03;0.55;;;;;;;14.35;71.39;96347.03;4869120;29;20052;-80
2023/09/23 03:16:15;;;;;;;0.47;0.38;;;;;;;14.35;66.74;96362.75;4930784;23;20041;-79
2023/09/23 03:19:10;;;;;;;0.80;0.40;;;;;;;14.35;66.45;96362.75;4880218;23;20034;-81
2023/09/23 03:22:11;;;;;;;1.63;0.40;;;;;;;14.31;68.00;96358.94;4869133;29;20057;-79
2023/09/23 03:25:20;;;;;;;1.25;0.40;;;;;;;14.30;66.70;96359.97;4868449;29;20067;-81
2023/09/23 03:30:59;;;;;;;;;;;;;;;14.30;67.21;96359.97;4956929;23;20102;-81
2023/09/23 03:33:28;;;;;;;0.47;0.40;;;;;;;14.25;66.21;96369.47;4827975;29;20011;-82
2023/09/23 03:35:56;;;;;;;0.40;0.40;;;;;;;14.20;66.58;96359.63;4825865;29;20050;-82
2023/09/23 03:38:28;;;;;;;0.40;0.35;;;;;;;14.17;66.21;96365.31;4825827;29;20058;-81
2023/09/23 03:40:59;;;;;;;0.60;0.20;;;;;;;14.14;67.03;96365.69;4826070;29;20133;-81
2023/09/23 03:43:27;;;;;;;1.35;0.40;;;;;;;14.11;66.37;96361.69;4826053;29;20050;-82
2023/09/23 03:45:55;;;;;;;1.17;0.45;;;;;;;14.08;67.52;96371.78;4825464;29;20145;-79
2023/09/23 03:48:25;;;;;;;0.65;0.32;;;;;;;14.06;66.62;96374.63;4825777;29;20062;-79
2023/09/23 03:50:54;;;;;;;0.45;0.30;;;;;;;13.99;65.83;96374.66;4825856;29;20145;-79
2023/09/23 03:53:23;;;;;;;0.90;0.50;;;;;;;13.93;65.46;96380.75;4826066;29;20103;-80
2023/09/23 03:55:54;;;;;;;1.02;0.30;;;;;;;13.92;66.56;96386.97;4825856;29;20082;-81
2023/09/23 03:58:24;;;;;;;1.92;0.82;;;;;;;13.94;66.63;96392.81;4826213;29;20056;-81
2023/09/23 04:00:54;;;;;;;0.60;0.25;;;;;;;13.95;66.54;96389.19;4826301;29;20111;-81
2023/09/23 04:03:23;;;;;;;1.83;0.40;;;;;;;13.98;68.65;96390.59;4826522;29;20484;-81
2023/09/23 04:05:57;;;;;;;1.58;0.40;;;;;;;13.99;66.73;96386.94;4826023;29;20062;-82
2023/09/23 04:08:26;;;;;;;1.85;0.40;;;;;;;13.96;66.18;96395.25;4826315;29;20058;-81
2023/09/23 04:10:55;;;;;;;0.50;0.45;;;;;;;13.91;66.28;96388.00;4825978;29;20127;-79
2023/09/23 04:13:25;;;;;;;0.57;0.32;;;;;;;13.93;69.74;96391.22;4825915;29;20054;-79
2023/09/23 04:16:00;;;;;;;0.73;0.30;;;;;;;13.94;69.17;96384.94;4826003;29;20078;-79
2023/09/23 04:18:30;;;;;;;0.90;0.30;;;;;;;13.94;67.87;96390.19;4826098;29;20062;-81
2023/09/23 04:21:01;;;;;;;0.80;0.30;;;;;;;13.91;66.66;96393.25;4825862;29;20082;-81
2023/09/23 04:23:30;;;;;;;1.42;0.47;;;;;;;13.91;66.80;96395.88;4824804;29;20068;-80
2023/09/23 04:26:03;;;;;;;1.02;0.45;;;;;;;13.91;68.08;96401.13;4824778;29;20066;-81
2023/09/23 04:28:33;;;;;;;0.70;0.50;;;;;;;13.95;68.85;96397.06;4824925;29;20481;-81
2023/09/23 04:31:02;;;;;;;3.70;0.80;;;;;;;13.94;66.93;96400.69;4824623;29;20149;-81
2023/09/23 04:33:31;;;;;;;4.72;0.85;;;;;;;13.94;69.10;96403.31;4825089;29;20499;-81
2023/09/23 04:36:06;;;;;;;0.95;0.85;;;;;;;13.91;66.80;96403.75;4825535;29;20447;-79
2023/09/23 04:38:35;;;;;;;0.50;0.50;;;;;;;13.85;67.39;96404.56;4825682;29;20137;-80
2023/09/23 04:41:08;;;;;;;0.63;0.38;;;;;;;13.86;67.92;96406.16;4824744;29;20927;-81
2023/09/23 04:43:39;;;;;;;0.85;0.30;;;;;;;13.85;68.34;96404.56;4829302;29;20137;-80
2023/09/23 04:46:14;;;;;;;0.80;0.60;;;;;;;13.86;69.25;96411.41;4835890;29;20054;-80
2023/09/23 04:48:44;;;;;;;0.45;0.38;;;;;;;13.87;69.74;96417.47;4830832;29;20431;-80
2023/09/23 04:51:13;;;;;;;0.85;0.70;;;;;;;13.88;70.14;96427.72;4825670;29;20522;-80
2023/09/23 04:53:42;;;;;;;0.40;0.40;;;;;;;13.88;69.19;96430.34;4825629;29;20054;-80
2023/09/23 04:56:17;;;;;;;1.90;0.35;;;;;;;13.86;68.84;96432.38;4824858;29;20062;-80
2023/09/23 04:58:47;;;;;;;0.57;0.50;;;;;;;13.89;70.05;96439.03;4825238;29;20059;-80
2023/09/23 05:01:17;;;;;;;0.77;0.35;;;;;;;13.92;69.67;96444.66;4826131;29;20050;-80
2023/09/23 05:03:47;;;;;;;0.73;0.40;;;;;;;13.92;69.42;96449.91;4825084;29;20137;-80
2023/09/23 05:06:16;;;;;;;1.02;0.50;;;;;;;13.93;70.05;96451.53;4825101;29;20152;-80
2023/09/23 05:08:45;;;;;;;1.95;0.50;;;;;;;13.92;68.29;96460.41;4824530;29;20107;-79
2023/09/23 05:11:17;;;;;;;1.88;0.70;;;;;;;13.89;67.14;96468.69;4824869;29;20133;-80
2023/09/23 05:13:46;;;;;;;0.57;0.57;;;;;;;13.85;67.66;96475.34;4824920;29;20062;-79
2023/09/23 05:16:16;;;;;;;1.35;0.40;;;;;;;13.86;69.04;96484.81;4824793;29;20067;-79
2023/09/23 05:18:48;;;;;;;0.88;0.45;;;;;;;13.92;69.42;96483.19;4825182;29;20058;-79
2023/09/23 05:21:18;;;;;;;0.57;0.57;;;;;;;13.95;69.61;96485.41;4825650;29;20062;-78
2023/09/23 05:23:49;;;;;;;0.90;0.73;;;;;;;13.95;68.89;96488.84;4825650;29;20112;-79
2023/09/23 05:26:23;;;;;;;0.40;0.40;;;;;;;13.96;69.11;96485.19;4824939;29;20082;-79
2023/09/23 05:28:52;;;;;;;1.02;0.50;;;;;;;13.94;69.08;96491.66;4824300;29;20542;-79
2023/09/23 05:31:20;;;;;;;0.68;0.63;;;;;;;13.96;70.13;96500.13;4824242;29;20051;-79
2023/09/23 05:33:49;;;;;;;2.35;0.50;;;;;;;13.98;69.00;96504.16;4824319;29;20066;-78
2023/09/23 05:36:20;;;;;;;0.82;0.50;;;;;;;14.00;68.91;96510.00;4824170;29;20058;-79
2023/09/23 05:38:49;;;;;;;0.73;0.40;;;;;;;13.98;68.88;96509.41;4824528;29;20057;-78
2023/09/23 05:41:23;;;;;;;0.85;0.50;;;;;;;13.97;67.70;96518.31;4834552;29;20054;-79
2023/09/23 05:43:53;;;;;;;0.88;0.38;;;;;;;14.00;68.55;96511.84;4840607;29;20555;-80
2023/09/23 05:46:24;;;;;;;0.68;0.60;;;;;;;14.01;69.22;96508.19;4832693;29;20058;-80
2023/09/23 05:48:53;;;;;;;0.55;0.50;;;;;;;14.01;69.76;96514.25;4825216;29;20054;-79
2023/09/23 05:51:22;;;;;;;2.35;0.60;;;;;;;14.02;69.12;96509.81;4824263;29;20102;-79
2023/09/23 05:53:52;;;;;;;2.28;1.33;;;;;;;14.02;68.48;96520.31;4818225;29;20054;-79
2023/09/23 05:56:22;;;;;;;1.35;0.70;;;;;;;14.07;70.63;96522.31;4806622;29;20088;-79
2023/09/23 05:58:51;;;;;;;0.60;0.50;;;;;;;14.04;67.93;96517.47;4806272;29;20071;-79
2023/09/23 06:01:21;;;;;;;0.95;0.50;;;;;;;14.00;68.29;96523.13;4811870;29;20050;-79
2023/09/23 06:03:50;;;;;;;0.95;0.55;;;;;;;14.02;67.73;96517.69;4822931;29;20046;-78
2023/09/23 06:06:19;;;;;;;1.50;0.80;;;;;;;13.97;68.45;96525.34;4824124;29;20066;-79
2023/09/23 06:08:50;;;;;;;3.45;1.00;;;;;;;13.91;68.27;96521.72;4823292;29;20062;-80
2023/09/23 06:11:20;;;;;;;3.33;1.10;;;;;;;13.90;68.82;96524.56;4823137;29;20051;-79
2023/09/23 06:14:21;;;;;;;1.52;0.85;;;;;;;13.92;69.22;96525.94;4807057;29;20073;-79
2023/09/23 06:17:39;;;;;;;0.95;0.85;;;;;;;13.95;68.43;96530.81;4836986;29;20054;-79
2023/09/23 06:20:12;;;;;;;3.10;1.10;;;;;;;13.95;67.77;96522.94;4818267;29;20518;-80
2023/09/23 06:22:42;;;;;;;1.20;0.57;;;;;;;13.98;68.79;96535.63;4811713;29;20059;-81
2023/09/23 06:25:11;;;;;;;3.22;0.98;;;;;;;14.04;69.35;96523.53;4807626;29;20561;-79
2023/09/23 06:27:40;;;;;;;1.77;1.00;;;;;;;14.11;68.70;96529.56;4811068;29;20086;-79
2023/09/23 06:30:15;;;;;;;2.65;1.15;;;;;;;14.17;71.03;96536.59;4821239;29;20056;-80
2023/09/23 06:32:47;;;;;;;5.10;1.42;;;;;;;14.26;70.62;96534.56;4823660;29;20515;-79
2023/09/23 06:48:19;;;;;;;1.35;0.77;;;;;;;14.68;66.18;96569.19;4843139;29;20048;-80
2023/09/23 06:50:56;;;;;;;1.85;0.52;;;;;;;14.77;65.42;96578.41;4845424;29;20507;-80
2023/09/23 06:53:27;;;;;;;1.20;0.70;;;;;;;14.78;63.81;96580.06;4827818;29;20118;-80
2023/09/23 06:55:56;;;;;;;2.63;1.07;;;;;;;14.80;64.85;96588.53;4828168;29;20058;-80
2023/09/23 06:58:24;;;;;;;1.90;0.75;;;;;;;14.87;65.28;96590.28;4828025;29;20286;-82
2023/09/23 07:00:52;;;;;;;2.92;1.13;;;;;;;14.88;63.37;96595.34;4827233;29;20522;-80
2023/09/23 07:03:21;;;;;;;1.48;1.30;;;;;;;14.96;65.09;96599.56;4827306;29;20054;-80
2023/09/23 07:05:49;;;;;;;2.00;0.90;;;;;;;15.04;64.59;96599.31;4827148;29;20063;-80
2023/09/23 07:08:18;;;;;;;2.08;0.73;;;;;;;15.10;62.63;96592.41;4827436;29;20062;-80
2023/09/23 07:13:42;;;;;;;2.20;0.80;;;;;;;15.28;63.58;96603.00;5053248;24;20094;-80
2023/09/23 07:16:13;;;;;;;2.13;0.95;;;;;;;15.38;63.05;96610.47;4845765;29;20407;-80
2023/09/23 07:18:45;;;;;;;1.35;0.75;;;;;;;15.43;62.98;96615.88;4845640;29;20178;-80
2023/09/23 07:21:13;;;;;;;2.25;0.73;;;;;;;15.48;62.16;96609.97;4845085;29;20518;-80
2023/09/23 07:23:40;;;;;;;2.97;0.70;;;;;;;15.54;63.33;96612.56;4844763;29;20145;-79
2023/09/23 07:26:08;;;;;;;1.83;1.10;;;;;;;15.62;62.07;96614.16;4844949;29;20139;-79
2023/09/23 07:28:36;;;;;;;2.20;1.30;;;;;;;15.72;64.01;96624.19;4845167;29;20054;-79
2023/09/23 07:31:04;;;;;;;2.53;0.85;;;;;;;15.86;64.55;96625.72;4845252;29;20048;-80
2023/09/23 07:33:32;;;;;;;1.17;0.40;;;;;;;16.00;63.48;96639.56;4850683;29;20050;-80
2023/09/23 07:36:09;;;;;;;1.90;0.50;;;;;;;16.13;62.83;96644.72;4845905;29;20046;-79
2023/09/23 07:38:37;;;;;;;0.65;0.45;;;;;;;16.22;60.69;96647.88;4828048;29;20141;-79
2023/09/23 07:41:05;;;;;;;0.47;0.35;;;;;;;16.36;59.93;96652.03;4827323;29;20123;-79
2023/09/23 07:43:33;;;;;;;0.82;0.30;;;;;;;16.66;60.09;96659.22;4826792;29;20059;-79
2023/09/23 07:46:00;;;;;;;2.92;0.47;;;;;;;16.91;60.20;96656.53;4829302;29;20604;-75
2023/09/23 07:48:28;;;;;;;0.95;0.50;;;;;;;17.15;59.48;96661.94;4828099;29;20050;-75
2023/09/23 08:13:09;;;;;;;0.93;0.55;;;;;;;18.59;53.59;96705.94;5596263;23;20031;-82
2023/09/23 08:15:37;;;;;;;1.73;1.17;;;;;;;18.66;53.09;96706.63;4850116;29;20054;-79
2023/09/23 08:18:05;;;;;;;1.88;1.05;;;;;;;18.72;53.15;96705.72;4846783;29;20050;-81
2023/09/23 08:20:33;;;;;;;0.95;0.40;;;;;;;18.79;52.39;96710.91;4844888;29;20064;-81
2023/09/23 08:23:02;;;;;;;2.83;0.70;;;;;;;18.84;52.10;96709.16;4844747;29;20507;-80
2023/09/23 08:25:30;;;;;;;1.55;0.70;;;;;;;18.93;52.18;96713.06;4845604;29;20113;-81
2023/09/23 08:28:00;;;;;;;0.68;0.40;;;;;;;19.06;50.90;96711.19;4852555;29;20463;-81
2023/09/23 08:30:29;;;;;;;3.80;0.80;;;;;;;19.16;50.55;96724.66;4864139;29;20053;-82
2023/09/23 08:32:57;;;;;;;0.70;0.60;;;;;;;19.30;51.02;96727.81;4862374;29;20061;-83
2023/09/23 08:35:26;;;;;;;0.75;0.75;;;;;;;19.45;51.21;96724.69;4863530;29;20080;-81
2023/09/23 08:37:54;;;;;;;0.57;0.57;;;;;;;19.61;50.89;96736.34;4863132;29;20057;-81
2023/09/23 08:40:22;;;;;;;1.83;0.60;;;;;;;19.73;50.73;96742.44;4863693;29;20735;-82
2023/09/23 08:42:52;;;;;;;1.13;0.73;;;;;;;19.82;50.00;96740.22;4863027;29;20144;-83
2023/09/23 08:45:25;;;;;;;0.80;0.35;;;;;;;19.85;50.29;96734.44;4863102;29;20053;-82
2023/09/23 08:47:54;;;;;;;1.30;0.57;;;;;;;19.88;49.43;96739.28;4864631;29;20498;-82
2023/09/23 08:50:24;;;;;;;0.80;0.40;;;;;;;19.86;48.56;96741.38;4858692;29;20046;-81
2023/09/23 08:52:52;;;;;;;0.90;0.70;;;;;;;19.74;48.55;96746.69;4831643;29;20099;-83
2023/09/23 08:55:22;;;;;;;0.60;0.50;;;;;;;19.64;48.90;96743.84;4826870;29;20404;-83
2023/09/23 08:57:50;;;;;;;1.17;0.45;;;;;;;19.74;48.18;96755.44;4827262;29;20054;-83
2023/09/23 09:00:18;;;;;;;1.48;0.50;;;;;;;19.71;47.96;96752.47;4826032;29;20058;-83
2023/09/23 09:02:46;;;;;;;1.15;0.30;;;;;;;19.60;48.51;96751.44;4848126;29;20050;-83
2023/09/23 09:05:15;;;;;;;1.63;0.45;;;;;;;19.45;47.55;96745.84;4862136;29;20053;-83
2023/09/23 09:07:42;;;;;;;1.55;0.70;;;;;;;19.22;48.29;96751.97;4855370;29;20056;-83
2023/09/23 09:10:10;;;;;;;3.08;0.80;;;;;;;19.10;48.12;96749.38;4844247;29;20136;-82
2023/09/23 09:12:38;;;;;;;1.25;0.50;;;;;;;19.12;49.67;96753.38;4844705;29;20122;-84
2023/09/23 09:15:07;;;;;;;3.10;1.92;;;;;;;19.68;48.19;96759.00;4845319;29;20053;-82
2023/09/23 09:17:35;;;;;;;2.75;0.68;;;;;;;20.68;46.63;96758.63;4845340;29;20057;-82
2023/09/23 09:20:08;;;;;;;2.70;0.40;;;;;;;21.26;44.11;96759.19;4844633;29;20061;-83
2023/09/23 09:22:39;;;;;;;0.70;0.50;;;;;;;21.46;44.85;96758.66;4843896;29;20054;-83
2023/09/23 09:25:10;;;;;;;1.00;0.43;;;;;;;21.47;44.44;96754.94;4844796;29;20050;-80
2023/09/23 09:27:37;;;;;;;3.92;0.70;;;;;;;21.43;43.87;96744.03;4833228;29;20058;-82
2023/09/23 09:30:11;;;;;;;1.25;0.60;;;;;;;21.22;43.58;96753.56;4833897;29;20062;-81
2023/09/23 09:32:42;;;;;;;0.63;0.38;;;;;;;21.18;43.97;96758.53;4840298;29;20430;-81
2023/09/23 09:35:13;;;;;;;0.70;0.40;;;;;;;21.14;44.25;96746.84;4844268;29;20054;-82
2023/09/23 09:37:44;;;;;;;2.55;0.63;;;;;;;21.08;43.90;96753.13;4830012;29;20078;-80
2023/09/23 09:40:17;;;;;;;1.17;0.47;;;;;;;21.07;44.44;96750.69;4836375;29;20114;-82
2023/09/23 09:42:53;;;;;;;2.50;0.45;;;;;;;21.07;42.16;96750.69;4843205;29;20111;-81
2023/09/23 09:45:23;;;;;;;1.50;0.50;;;;;;;21.05;42.92;96750.13;4842473;29;20543;-81
2023/09/23 09:47:53;;;;;;;1.90;0.40;;;;;;;21.09;43.90;96753.91;4842414;29;20053;-82
2023/09/23 09:50:23;;;;;;;1.30;0.50;;;;;;;21.19;44.20;96759.34;4843276;29;20057;-80
2023/09/23 09:52:52;;;;;;;0.73;0.47;;;;;;;21.32;43.12;96751.03;4855534;29;20054;-80
2023/09/23 09:55:24;;;;;;;1.33;0.47;;;;;;;21.48;42.62;96751.25;4846307;29;20129;-80
2023/09/23 09:57:55;;;;;;;3.03;0.60;;;;;;;21.57;41.54;96745.25;4837695;29;20058;-80
2023/09/23 10:00:27;;;;;;;1.50;0.50;;;;;;;21.68;42.51;96740.06;4827442;29;20189;-81
2023/09/23 10:02:59;;;;;;;;;;;;;;;21.82;43.24;96754.53;4853862;29;20705;-81
2023/09/23 10:05:34;;;;;;;0.82;0.20;;;;;;;21.94;41.23;96754.41;4862596;29;19924;-81
2023/09/23 10:08:12;;;;;;;0.88;0.30;;;;;;;21.99;41.03;96757.09;4862785;29;20082;-81
2023/09/23 10:10:47;;;;;;;2.13;0.60;;;;;;;22.08;39.97;96752.94;4839693;29;20121;-80
2023/09/23 10:13:16;;;;;;;2.97;0.40;;;;;;;22.15;40.02;96753.56;4839195;29;20084;-79
2023/09/23 10:15:45;;;;;;;1.27;0.45;;;;;;;22.15;40.82;96739.44;4831413;29;20053;-80
2023/09/23 10:18:13;;;;;;;3.88;0.38;;;;;;;22.20;40.62;96747.47;4845158;29;20054;-80
2023/09/23 10:20:42;;;;;;;1.70;0.50;;;;;;;22.22;40.47;96742.75;4846669;29;20065;-81
2023/09/23 10:23:11;;;;;;;2.97;1.60;;;;;;;22.28;39.13;96748.88;4849794;29;20054;-80
2023/09/23 10:25:40;;;;;;;2.22;0.65;;;;;;;22.31;39.16;96737.78;4850383;29;20089;-81
2023/09/23 10:28:18;;;;;;;1.85;0.52;;;;;;;22.41;39.82;96748.47;4849658;29;20049;-80
2023/09/23 10:30:56;;;;;;;1.90;0.30;;;;;;;22.52;38.38;96747.50;4851315;29;20067;-77
2023/09/23 10:33:26;;;;;;;1.92;0.45;;;;;;;22.59;39.78;96737.47;4852754;29;20075;-78
2023/09/23 10:35:56;;;;;;;1.27;0.73;;;;;;;22.72;39.26;96735.38;4853146;29;20062;-78
2023/09/23 10:38:27;;;;;;;1.75;0.40;;;;;;;22.81;39.24;96741.84;4842629;29;20061;-78
2023/09/23 10:40:56;;;;;;;0.73;0.43;;;;;;;22.87;38.48;96730.19;4832313;29;20531;-78
2023/09/23 10:43:25;;;;;;;1.63;0.60;;;;;;;22.88;38.10;96737.09;4828063;29;20054;-78
2023/09/23 10:45:53;;;;;;;1.27;0.40;;;;;;;22.89;38.92;96737.91;4828661;29;20087;-79
2023/09/23 10:48:21;;;;;;;2.15;0.60;;;;;;;22.94;39.44;96730.75;4830543;29;20057;-79
2023/09/23 10:50:50;;;;;;;1.55;0.43;;;;;;;23.03;38.60;96734.56;4850917;29;20057;-79
2023/09/23 10:53:18;;;;;;;0.22;0.20;;;;;;;23.14;37.63;96734.63;4853655;29;20099;-78
2023/09/23 10:55:48;;;;;;;0.93;0.40;;;;;;;23.24;38.01;96737.31;4840125;29;20046;-79
2023/09/23 10:58:16;;;;;;;1.77;0.45;;;;;;;23.24;36.73;96740.78;4828443;29;20050;-78
2023/09/23 11:00:44;;;;;;;1.08;0.43;;;;;;;23.19;37.38;96732.78;4833524;29;20709;-78
2023/09/23 11:03:13;;;;;;;1.13;0.40;;;;;;;23.20;36.41;96733.59;4850342;29;20088;-78
2023/09/23 11:05:43;;;;;;;0.95;0.55;;;;;;;23.22;37.57;96736.78;4844514;29;20056;-78
2023/09/23 11:08:12;;;;;;;1.55;0.32;;;;;;;23.30;38.83;96749.59;4835780;29;20050;-78
2023/09/23 11:10:41;;;;;;;1.02;0.45;;;;;;;23.34;37.94;96749.88;4832494;29;20053;-78
2023/09/23 11:13:11;;;;;;;0.77;0.68;;;;;;;23.29;36.57;96753.31;4837400;29;20066;-78
2023/09/23 11:15:40;;;;;;;3.50;0.57;;;;;;;23.20;36.90;96745.03;4828011;29;20175;-78
2023/09/23 11:18:08;;;;;;;1.20;0.40;;;;;;;23.14;37.36;96751.38;4844444;29;20053;-78
2023/09/23 11:20:40;;;;;;;1.33;0.65;;;;;;;23.09;38.48;96747.88;4843918;29;20054;-77
2023/09/23 11:23:10;;;;;;;3.15;0.55;;;;;;;23.03;40.77;96745.19;4844086;29;20053;-77
2023/09/23 11:25:41;;;;;;;1.20;0.50;;;;;;;22.97;37.88;96748.06;4844020;29;20166;-77
2023/09/23 11:28:16;;;;;;;1.30;0.80;;;;;;;22.77;37.46;96751.41;4842684;29;20448;-78
2023/09/23 11:30:44;;;;;;;1.35;0.55;;;;;;;22.68;38.13;96747.63;4833575;29;20060;-77
2023/09/23 11:33:12;;;;;;;2.55;0.60;;;;;;;22.76;38.02;96752.44;4826428;29;20480;-77
2023/09/23 11:35:40;;;;;;;4.35;0.65;;;;;;;22.83;37.81;96753.03;4825559;29;20111;-77
2023/09/23 11:38:08;;;;;;;0.60;0.40;;;;;;;22.91;37.88;96752.53;4833285;29;20125;-78
2023/09/23 11:40:36;;;;;;;0.85;0.45;;;;;;;22.97;37.43;96753.38;4844058;29;20050;-78
2023/09/23 11:43:04;;;;;;;0.50;0.30;;;;;;;23.01;36.90;96757.16;4844888;29;20109;-78
2023/09/23 11:45:33;;;;;;;1.83;0.22;;;;;;;23.10;36.95;96752.94;4842790;29;20100;-78
2023/09/23 11:48:03;;;;;;;0.30;0.22;;;;;;;23.16;36.71;96753.78;4834020;29;20088;-78
2023/09/23 11:50:31;;;;;;;1.77;0.57;;;;;;;23.14;36.04;96763.91;4845093;29;20123;-79
2023/09/23 11:52:59;;;;;;;0.68;0.40;;;;;;;23.13;36.27;96762.28;4843153;29;20058;-80
2023/09/23 11:55:29;;;;;;;1.50;0.60;;;;;;;23.09;36.81;96769.16;4828630;29;20050;-79
2023/09/23 11:57:57;;;;;;;1.52;0.30;;;;;;;23.03;37.31;96766.50;4832229;29;20450;-73
2023/09/23 12:00:25;;;;;;;2.67;0.60;;;;;;;23.03;37.11;96769.16;4842675;29;20054;-73
2023/09/23 12:02:54;;;;;;;2.38;0.70;;;;;;;23.00;37.25;96769.69;4854540;29;20053;-73
2023/09/23 12:05:28;;;;;;;2.78;0.55;;;;;;;23.01;36.33;96765.94;4861650;29;20558;-76
2023/09/23 12:07:58;;;;;;;1.60;0.50;;;;;;;23.24;36.26;96763.94;4832084;29;20124;-73
2023/09/23 12:10:27;;;;;;;1.63;0.75;;;;;;;23.34;35.88;96765.84;4834472;29;20054;-74
2023/09/23 12:13:02;;;;;;;2.22;0.50;;;;;;;23.33;36.10;96765.06;4838532;29;20046;-73
2023/09/23 12:15:30;;;;;;;2.08;0.40;;;;;;;23.17;35.08;96768.69;4830176;29;20061;-73
2023/09/23 12:17:59;;;;;;;1.02;0.40;;;;;;;22.94;36.87;96760.03;4830535;29;20498;-73
2023/09/23 12:20:28;;;;;;;0.77;0.43;;;;;;;22.80;34.54;96761.50;4833544;29;20057;-73
2023/09/23 12:22:57;;;;;;;0.85;0.30;;;;;;;22.69;35.05;96759.84;4824355;29;20050;-73
2023/09/23 12:25:25;;;;;;;1.65;0.70;;;;;;;22.59;36.10;96757.94;4839364;29;20052;-73
2023/09/23 12:27:52;;;;;;;1.77;0.40;;;;;;;22.48;36.06;96769.50;4841239;29;20472;-74
2023/09/23 12:30:20;;;;;;;1.85;0.43;;;;;;;22.36;35.91;96770.50;4830764;29;20085;-73
2023/09/23 12:32:47;;;;;;;0.40;0.40;;;;;;;22.25;35.64;96760.03;4841875;29;20053;-73
2023/09/23 12:35:16;;;;;;;1.30;0.80;;;;;;;22.20;36.58;96769.53;4842680;29;20053;-79
2023/09/23 12:37:44;;;;;;;1.60;0.68;;;;;;;22.20;36.02;96769.53;4847406;29;20106;-79
2023/09/23 12:40:12;;;;;;;2.67;0.50;;;;;;;22.10;34.97;96769.41;4846025;29;20132;-79
2023/09/23 12:42:39;;;;;;;2.47;0.70;;;;;;;22.00;35.69;96766.69;4845737;29;20053;-79
2023/09/23 12:45:07;;;;;;;1.27;0.57;;;;;;;21.96;35.63;96768.22;4834186;29;20142;-78
2023/09/23 12:47:35;;;;;;;1.58;0.50;;;;;;;21.92;36.22;96770.56;4845730;29;20107;-78
2023/09/23 12:50:25;;;;;;;4.78;0.90;;;;;;;21.83;35.74;96776.59;4845762;29;20118;-78
2023/09/23 12:52:53;;;;;;;1.75;0.70;;;;;;;21.78;35.79;96772.84;4845000;29;20102;-79
2023/09/23 12:55:21;;;;;;;1.35;0.50;;;;;;;21.80;36.31;96781.34;4829752;29;20427;-78
2023/09/23 12:57:49;;;;;;;1.30;0.80;;;;;;;21.83;35.67;96779.25;4826605;29;20058;-79
2023/09/23 13:00:17;;;;;;;3.72;1.13;;;;;;;21.82;36.41;96778.44;4831774;29;20472;-79
2023/09/23 13:02:44;;;;;;;1.15;0.63;;;;;;;21.85;36.12;96782.47;4836733;29;20145;-78
2023/09/23 13:05:15;;;;;;;1.15;0.50;;;;;;;21.89;35.40;96780.91;4843875;29;20513;-78
2023/09/23 13:07:46;;;;;;;2.47;0.52;;;;;;;21.93;36.04;96776.69;4843679;29;20060;-79
2023/09/23 13:10:18;;;;;;;1.77;0.40;;;;;;;22.03;37.69;96782.09;4842599;29;20082;-77
2023/09/23 13:12:47;;;;;;;2.97;0.50;;;;;;;22.10;35.74;96782.69;4843094;29;20057;-77
2023/09/23 13:15:16;;;;;;;2.08;0.55;;;;;;;22.16;35.67;96783.56;4843354;29;20411;-78
2023/09/23 13:17:44;;;;;;;2.13;0.65;;;;;;;22.15;35.68;96780.13;4843778;29;20061;-78
2023/09/23 13:20:12;;;;;;;1.70;0.70;;;;;;;22.11;36.72;96786.97;4844191;29;20437;-78
2023/09/23 13:22:40;;;;;;;1.52;0.60;;;;;;;22.08;36.05;96782.16;4844393;29;20066;-77
2023/09/23 13:25:11;;;;;;;2.33;0.77;;;;;;;22.01;37.28;96789.53;4843799;29;20046;-78
2023/09/23 13:27:38;;;;;;;2.10;1.17;;;;;;;21.92;36.27;96786.50;4843659;29;20507;-78
2023/09/23 13:30:09;;;;;;;3.03;1.13;;;;;;;21.86;37.37;96787.50;4843938;29;20514;-78
2023/09/23 13:32:37;;;;;;;1.65;0.50;;;;;;;21.82;36.26;96791.72;4844524;29;20076;-77
2023/09/23 13:35:07;;;;;;;1.40;0.50;;;;;;;21.77;37.22;96796.97;4843545;29;20064;-78
2023/09/23 13:37:35;;;;;;;0.77;0.40;;;;;;;21.71;36.64;96793.47;4843204;29;20054;-78
2023/09/23 13:40:04;;;;;;;0.93;0.35;;;;;;;21.70;37.84;96807.78;4842687;29;20054;-78
2023/09/23 13:42:33;;;;;;;3.78;1.65;;;;;;;21.71;36.96;96804.09;4842524;29;20683;-78
2023/09/23 13:45:00;;;;;;;2.83;1.10;;;;;;;21.72;36.80;96810.19;4843216;29;20121;-78
2023/09/23 13:47:28;;;;;;;1.63;0.68;;;;;;;21.64;37.20;96814.06;4851107;29;20058;-78
2023/09/23 13:49:56;;;;;;;2.47;0.60;;;;;;;21.55;38.30;96808.38;4858154;29;20053;-78
2023/09/23 13:52:25;;;;;;;1.13;0.60;;;;;;;21.47;38.41;96811.50;4845883;29;20082;-77